createdAt,value
2022-11-20T00:01:27.409Z,21.27
2022-11-20T00:03:55.985Z,22.00
2022-11-20T00:06:23.869Z,21.27
2022-11-20T00:08:51.785Z,23.33
2022-11-20T00:11:21.468Z,20.03
2022-11-20T00:13:50.502Z,20.30
2022-11-20T00:16:20.362Z,19.77
2022-11-20T00:18:47.524Z,20.00
2022-11-20T00:21:20.233Z,21.70
2022-11-20T00:23:49.525Z,20.43
2022-11-20T00:26:18.767Z,19.97
2022-11-20T00:28:50.271Z,18.83
2022-11-20T00:31:17.602Z,19.27
2022-11-20T00:33:45.547Z,18.37
2022-11-20T00:36:15.933Z,18.80
2022-11-20T00:38:43.404Z,19.03
2022-11-20T00:41:12.092Z,19.27
2022-11-20T00:43:38.984Z,17.73
2022-11-20T00:46:08.641Z,19.70
2022-11-20T00:48:35.723Z,18.10
2022-11-20T00:51:02.457Z,18.23
2022-11-20T00:53:29.350Z,17.80
2022-11-20T00:56:03.498Z,18.00
2022-11-20T00:58:32.591Z,20.03
2022-11-20T01:01:17.793Z,19.93
2022-11-20T01:03:46.988Z,19.30
2022-11-20T01:06:20.014Z,18.10
2022-11-20T01:08:47.510Z,18.97
2022-11-20T01:11:22.656Z,18.10
2022-11-20T01:13:51.425Z,18.57
2022-11-20T01:16:26.539Z,17.07
2022-11-20T01:18:55.343Z,18.30
2022-11-20T01:21:27.151Z,18.13
2022-11-20T01:23:54.636Z,16.87
2022-11-20T01:26:33.097Z,18.93
2022-11-20T01:29:00.973Z,18.80
2022-11-20T01:31:33.453Z,17.63
2022-11-20T01:34:03.056Z,16.93
2022-11-20T01:36:32.333Z,16.90
2022-11-20T01:39:01.532Z,18.07
2022-11-20T01:41:48.761Z,19.23
2022-11-20T01:44:18.102Z,17.83
2022-11-20T01:47:03.258Z,17.83
2022-11-20T01:49:41.573Z,17.27
2022-11-20T01:52:23.618Z,16.70
2022-11-20T01:54:59.928Z,18.17
2022-11-20T01:57:29.007Z,17.23
2022-11-20T02:00:01.068Z,17.87
2022-11-20T02:02:28.377Z,15.87
2022-11-20T02:05:01.901Z,17.40
2022-11-20T02:07:29.649Z,17.97
2022-11-20T02:09:58.944Z,16.17
2022-11-20T02:12:44.679Z,16.33
2022-11-20T02:15:11.589Z,16.60
2022-11-20T02:17:39.201Z,16.37
2022-11-20T02:20:07.186Z,17.47
2022-11-20T02:22:47.935Z,18.17
2022-11-20T02:25:16.208Z,16.70
2022-11-20T02:27:42.907Z,15.50
2022-11-20T02:30:11.965Z,16.53
2022-11-20T02:32:39.878Z,16.33
2022-11-20T02:35:31.078Z,15.50
2022-11-20T02:38:01.437Z,14.90
2022-11-20T02:40:28.268Z,14.20
2022-11-20T02:42:55.935Z,15.63
2022-11-20T02:45:23.840Z,15.37
2022-11-20T02:47:51.493Z,15.30
2022-11-20T02:50:18.812Z,15.60
2022-11-20T02:52:45.777Z,15.20
2022-11-20T02:55:12.897Z,16.33
2022-11-20T02:57:42.658Z,14.80
2022-11-20T03:00:10.152Z,15.97
2022-11-20T03:02:36.973Z,15.63
2022-11-20T03:05:04.581Z,15.10
2022-11-20T03:07:34.268Z,15.33
2022-11-20T03:10:01.073Z,14.47
2022-11-20T03:12:27.879Z,15.83
2022-11-20T03:14:54.596Z,14.27
2022-11-20T03:17:21.374Z,15.27
2022-11-20T03:19:48.095Z,15.37
2022-11-20T03:22:14.918Z,13.77
2022-11-20T03:24:41.642Z,16.33
2022-11-20T03:27:08.405Z,15.10
2022-11-20T03:29:36.604Z,15.23
2022-11-20T03:32:03.333Z,15.53
2022-11-20T03:34:30.124Z,14.03
2022-11-20T03:36:56.837Z,13.60
2022-11-20T03:39:24.019Z,14.50
2022-11-20T03:41:51.007Z,13.73
2022-11-20T03:44:17.655Z,16.13
2022-11-20T03:46:44.455Z,16.10
2022-11-20T03:49:11.283Z,17.17
2022-11-20T03:51:38.229Z,17.43
2022-11-20T03:54:08.337Z,15.50
2022-11-20T03:56:38.175Z,15.00
2022-11-20T03:59:05.775Z,15.47
2022-11-20T04:01:35.167Z,15.77
2022-11-20T04:04:02.132Z,15.27
2022-11-20T04:06:31.615Z,17.47
2022-11-20T04:08:59.629Z,17.57
2022-11-20T04:11:34.878Z,15.93
2022-11-20T04:14:03.746Z,16.97
2022-11-20T04:16:32.542Z,17.43
2022-11-20T04:19:01.418Z,17.37
2022-11-20T04:21:28.708Z,16.87
2022-11-20T04:23:56.237Z,16.53
2022-11-20T04:26:25.487Z,15.73
2022-11-20T04:28:52.794Z,14.83
2022-11-20T04:31:24.763Z,15.63
2022-11-20T04:33:52.405Z,14.47
2022-11-20T04:36:31.965Z,15.17
2022-11-20T04:39:01.314Z,14.50
2022-11-20T04:41:30.483Z,14.37
2022-11-20T04:44:02.808Z,14.93
2022-11-20T04:46:30.998Z,14.20
2022-11-20T04:48:57.804Z,15.53
2022-11-20T04:51:24.945Z,14.77
2022-11-20T04:53:51.712Z,15.90
2022-11-20T04:56:19.123Z,14.63
2022-11-20T04:58:45.951Z,14.93
2022-11-20T05:01:15.383Z,15.53
2022-11-20T05:03:43.489Z,17.20
2022-11-20T05:06:13.095Z,17.67
2022-11-20T05:08:39.875Z,17.57
2022-11-20T05:11:12.070Z,17.43
2022-11-20T05:13:39.174Z,17.70
2022-11-20T05:16:17.521Z,17.63
2022-11-20T05:18:44.632Z,17.80
2022-11-20T05:21:12.676Z,17.83
2022-11-20T05:23:39.895Z,18.03
2022-11-20T05:26:09.068Z,17.50
2022-11-20T05:28:35.833Z,17.73
2022-11-20T05:31:27.220Z,17.03
2022-11-20T05:33:55.397Z,16.97
2022-11-20T05:36:22.111Z,17.23
2022-11-20T05:38:51.182Z,15.20
2022-11-20T05:41:20.695Z,14.70
2022-11-20T05:43:48.838Z,15.00
2022-11-20T05:46:17.945Z,14.83
2022-11-20T05:48:45.699Z,16.13
2022-11-20T05:51:15.916Z,16.90
2022-11-20T05:53:48.137Z,17.10
2022-11-20T05:56:18.568Z,15.47
2022-11-20T05:58:45.872Z,16.17
2022-11-20T06:01:17.418Z,15.43
2022-11-20T06:03:47.027Z,15.20
2022-11-20T06:06:14.899Z,16.60
2022-11-20T06:08:41.966Z,15.17
2022-11-20T06:11:10.746Z,15.87
2022-11-20T06:13:41.888Z,15.33
2022-11-20T06:16:10.551Z,15.60
2022-11-20T06:18:37.537Z,15.97
2022-11-20T06:21:11.816Z,17.60
2022-11-20T06:23:39.393Z,16.17
2022-11-20T06:26:11.573Z,17.57
2022-11-20T06:28:39.143Z,17.10
2022-11-20T06:31:07.359Z,20.43
2022-11-20T06:33:34.176Z,20.27
2022-11-20T06:36:05.631Z,22.77
2022-11-20T06:38:34.367Z,22.07
2022-11-20T06:41:01.117Z,20.00
2022-11-20T06:43:30.551Z,19.57
2022-11-20T06:45:59.244Z,18.20
2022-11-20T06:48:28.542Z,19.93
2022-11-20T06:50:56.019Z,18.87
2022-11-20T06:53:23.560Z,18.83
2022-11-20T06:55:51.058Z,18.37
2022-11-20T06:58:19.087Z,18.87
2022-11-20T07:00:46.390Z,18.60
2022-11-20T07:03:13.578Z,18.50
2022-11-20T07:05:41.315Z,16.53
2022-11-20T07:08:08.581Z,19.13
2022-11-20T07:10:35.658Z,18.43
2022-11-20T07:13:02.541Z,18.00
2022-11-20T07:15:29.271Z,18.53
2022-11-20T07:17:57.199Z,18.37
2022-11-20T07:20:23.921Z,18.40
2022-11-20T07:22:55.809Z,18.87
2022-11-20T07:25:23.359Z,17.73
2022-11-20T07:27:50.147Z,19.27
2022-11-20T07:30:17.573Z,19.17
2022-11-20T07:32:47.871Z,20.37
2022-11-20T07:35:15.295Z,20.97
2022-11-20T07:37:43.037Z,22.20
2022-11-20T07:40:10.266Z,21.20
2022-11-20T07:42:36.958Z,21.30
2022-11-20T07:45:04.070Z,21.43
2022-11-20T07:47:36.517Z,20.80
2022-11-20T07:50:10.782Z,20.87
2022-11-20T07:52:37.576Z,19.43
2022-11-20T07:55:09.089Z,20.53
2022-11-20T07:57:36.281Z,20.17
2022-11-20T08:00:05.439Z,19.23
2022-11-20T08:02:32.316Z,21.80
2022-11-20T08:04:59.204Z,21.23
2022-11-20T08:07:26.218Z,21.60
2022-11-20T08:09:53.146Z,22.77
2022-11-20T08:12:40.702Z,22.67
2022-11-20T08:15:13.027Z,25.87
2022-11-20T08:17:52.493Z,24.13
2022-11-20T08:20:30.614Z,22.77
2022-11-20T08:23:02.167Z,24.10
2022-11-20T08:25:30.523Z,23.83
2022-11-20T08:28:18.327Z,22.50
2022-11-20T08:30:47.251Z,23.67
2022-11-20T08:33:14.080Z,22.77
2022-11-20T08:35:42.185Z,23.27
2022-11-20T08:38:10.101Z,22.60
2022-11-20T08:40:36.907Z,23.07
2022-11-20T08:43:03.732Z,24.50
2022-11-20T08:45:34.300Z,25.83
2022-11-20T08:48:02.674Z,24.40
2022-11-20T08:50:29.632Z,25.60
2022-11-20T08:52:56.387Z,25.90
2022-11-20T08:55:23.186Z,24.97
2022-11-20T08:57:51.223Z,24.17
2022-11-20T09:00:18.365Z,25.50
2022-11-20T09:02:45.211Z,24.13
2022-11-20T09:05:12.024Z,22.10
2022-11-20T09:07:38.901Z,25.00
2022-11-20T09:12:54.011Z,23.13
2022-11-20T09:15:21.085Z,22.60
2022-11-20T09:17:59.217Z,22.43
2022-11-20T09:20:27.018Z,23.33
2022-11-20T09:22:53.801Z,25.00
2022-11-20T09:25:20.669Z,24.67
2022-11-20T09:27:47.562Z,23.50
2022-11-20T09:30:19.860Z,24.23
2022-11-20T09:32:47.055Z,23.70
2022-11-20T09:35:15.003Z,25.33
2022-11-20T09:37:41.945Z,23.80
2022-11-20T09:40:31.674Z,24.47
2022-11-20T09:43:13.941Z,23.87
2022-11-20T09:45:56.528Z,25.07
2022-11-20T09:48:55.394Z,24.97
2022-11-20T09:51:41.017Z,22.37
2022-11-20T09:54:08.210Z,23.00
2022-11-20T09:56:41.593Z,23.70
2022-11-20T09:59:26.534Z,24.53
2022-11-20T10:01:55.655Z,22.80
2022-11-20T10:04:23.467Z,22.97
2022-11-20T10:10:00.266Z,22.80
2022-11-20T10:12:41.637Z,22.43
2022-11-20T10:15:27.949Z,22.40
2022-11-20T10:18:15.673Z,23.50
2022-11-20T10:21:00.706Z,24.37
2022-11-20T10:23:58.887Z,23.47
2022-11-20T10:27:00.710Z,23.80
2022-11-20T10:29:34.843Z,24.40
2022-11-20T10:32:14.646Z,23.40
2022-11-20T10:34:58.717Z,24.50
2022-11-20T10:37:30.703Z,24.77
2022-11-20T10:39:57.400Z,24.63
2022-11-20T10:42:38.900Z,24.80
2022-11-20T10:45:32.474Z,24.10
2022-11-20T10:48:32.197Z,24.27
2022-11-20T10:51:35.854Z,24.33
2022-11-20T10:54:26.994Z,23.27
2022-11-20T10:56:57.680Z,23.90
2022-11-20T10:59:57.550Z,22.53
2022-11-20T11:02:32.263Z,23.93
2022-11-20T11:05:03.997Z,24.50
2022-11-20T11:07:39.776Z,25.40
2022-11-20T11:10:18.853Z,24.73
2022-11-20T11:12:50.715Z,24.03
2022-11-20T11:15:37.576Z,22.20
2022-11-20T11:18:04.826Z,22.00
2022-11-20T11:20:33.359Z,22.47
2022-11-20T11:23:00.847Z,22.00
2022-11-20T11:25:36.628Z,21.80
2022-11-20T11:28:27.177Z,21.53
2022-11-20T11:30:54.503Z,22.20
2022-11-20T11:33:23.427Z,22.87
2022-11-20T11:35:59.246Z,24.13
2022-11-20T11:38:41.761Z,21.00
2022-11-20T11:41:14.119Z,23.17
2022-11-20T11:43:59.696Z,22.13
2022-11-20T11:46:29.676Z,23.40
2022-11-20T11:49:11.146Z,22.27
2022-11-20T11:51:59.268Z,23.97
2022-11-20T11:54:48.936Z,22.77
2022-11-20T11:57:24.806Z,23.40
2022-11-20T12:00:17.002Z,22.93
2022-11-20T12:02:46.522Z,22.97
2022-11-20T12:05:19.335Z,22.37
2022-11-20T12:08:12.734Z,21.53
2022-11-20T12:10:57.271Z,21.63
2022-11-20T12:13:37.736Z,21.80
2022-11-20T12:16:05.117Z,21.23
2022-11-20T12:18:32.853Z,21.00
2022-11-20T12:21:08.243Z,21.60
2022-11-20T12:23:43.570Z,21.40
2022-11-20T12:26:40.026Z,20.83
2022-11-20T12:29:28.669Z,20.67
2022-11-20T12:32:12.071Z,20.90
2022-11-20T12:35:11.416Z,21.00
2022-11-20T12:37:46.704Z,19.83
2022-11-20T12:40:33.310Z,18.90
2022-11-20T12:43:45.666Z,19.27
2022-11-20T12:46:27.862Z,18.23
2022-11-20T12:48:54.524Z,18.97
2022-11-20T12:51:38.304Z,19.13
2022-11-20T12:54:29.537Z,19.00
2022-11-20T12:57:26.718Z,18.73
2022-11-20T13:00:11.867Z,20.10
2022-11-20T13:03:08.943Z,18.70
2022-11-20T13:06:02.378Z,17.30
2022-11-20T13:08:35.287Z,16.83
2022-11-20T13:11:29.052Z,17.30
2022-11-20T13:14:17.971Z,18.27
2022-11-20T13:17:06.268Z,17.80
2022-11-20T13:19:33.976Z,18.50
2022-11-20T13:22:00.869Z,19.23
2022-11-20T13:24:31.166Z,19.73
2022-11-20T13:27:01.986Z,20.90
2022-11-20T13:29:29.716Z,21.23
2022-11-20T13:32:33.013Z,22.20
2022-11-20T13:35:03.259Z,21.53
2022-11-20T13:37:40.123Z,20.97
2022-11-20T13:40:23.895Z,21.47
2022-11-20T13:43:01.855Z,23.60
2022-11-20T13:45:31.757Z,22.90
2022-11-20T13:48:05.633Z,22.70
2022-11-20T13:50:38.823Z,23.03
2022-11-20T13:53:27.823Z,22.07
2022-11-20T13:56:08.615Z,21.97
2022-11-20T13:58:44.158Z,22.83
2022-11-20T14:01:15.148Z,21.97
2022-11-20T14:04:05.079Z,21.73
2022-11-20T14:06:35.627Z,22.17
2022-11-20T14:09:02.401Z,22.07
2022-11-20T14:11:30.943Z,20.87
2022-11-20T14:14:16.418Z,21.77
2022-11-20T14:16:45.338Z,20.47
2022-11-20T14:19:21.393Z,20.97
2022-11-20T14:21:50.022Z,20.23
2022-11-20T14:24:24.966Z,21.93
2022-11-20T14:26:53.247Z,20.97
2022-11-20T14:29:24.739Z,21.50
2022-11-20T14:31:56.687Z,22.23
2022-11-20T14:34:26.444Z,23.97
2022-11-20T14:37:17.104Z,22.87
2022-11-20T14:39:53.000Z,22.93
2022-11-20T14:42:28.324Z,23.70
2022-11-20T14:45:00.215Z,25.83
2022-11-20T14:47:31.881Z,24.60
2022-11-20T14:50:04.628Z,23.03
2022-11-20T14:52:35.804Z,24.73
2022-11-20T14:55:02.874Z,23.67
2022-11-20T14:57:35.196Z,24.47
2022-11-20T15:00:14.351Z,24.70
2022-11-20T15:02:46.156Z,26.73
2022-11-20T15:05:13.759Z,26.63
2022-11-20T15:07:46.669Z,26.30
2022-11-20T15:10:28.159Z,29.40
2022-11-20T15:13:01.032Z,29.07
2022-11-20T15:15:46.525Z,27.70
2022-11-20T15:18:20.587Z,27.47
2022-11-20T15:20:47.759Z,28.60
2022-11-20T15:23:16.984Z,26.87
2022-11-20T15:25:43.985Z,27.17
2022-11-20T15:28:22.803Z,26.43
2022-11-20T15:30:50.783Z,27.27
2022-11-20T15:33:18.705Z,28.40
2022-11-20T15:35:46.324Z,28.67
2022-11-20T15:38:13.252Z,28.83
2022-11-20T15:40:40.026Z,28.63
2022-11-20T15:43:12.880Z,30.33
2022-11-20T15:45:50.624Z,31.03
2022-11-20T15:48:23.977Z,30.03
2022-11-20T15:50:53.738Z,29.60
2022-11-20T15:53:20.624Z,31.47
2022-11-20T15:55:47.422Z,31.90
2022-11-20T15:58:14.270Z,29.93
2022-11-20T16:00:41.280Z,31.07
2022-11-20T16:03:11.769Z,29.97
2022-11-20T16:05:38.548Z,30.53
2022-11-20T16:08:11.099Z,31.90
2022-11-20T16:10:38.823Z,32.53
2022-11-20T16:13:24.994Z,31.00
2022-11-20T16:15:56.953Z,31.47
2022-11-20T16:18:23.794Z,32.17
2022-11-20T16:20:53.183Z,32.97
2022-11-20T16:23:21.271Z,34.13
2022-11-20T16:25:49.290Z,32.83
2022-11-20T16:28:19.174Z,33.07
2022-11-20T16:30:47.263Z,33.63
2022-11-20T16:33:16.449Z,33.40
2022-11-20T16:35:43.221Z,35.47
2022-11-20T16:38:10.539Z,35.30
2022-11-20T16:40:37.387Z,35.47
2022-11-20T16:43:10.643Z,32.90
2022-11-20T16:45:44.624Z,35.30
2022-11-20T16:48:17.094Z,35.23
2022-11-20T16:50:54.986Z,35.27
2022-11-20T16:53:22.860Z,35.97
2022-11-20T16:55:49.786Z,35.23
2022-11-20T16:58:20.040Z,35.13
2022-11-20T17:00:51.437Z,35.50
2022-11-20T17:03:18.963Z,35.90
2022-11-20T17:05:45.717Z,36.00
2022-11-20T17:08:12.380Z,38.07
2022-11-20T17:10:39.109Z,38.50
2022-11-20T17:13:05.814Z,36.30
2022-11-20T17:15:32.603Z,38.93
2022-11-20T17:17:59.672Z,38.77
2022-11-20T17:20:26.464Z,36.40
2022-11-20T17:22:53.351Z,37.57
2022-11-20T17:25:20.221Z,38.90
2022-11-20T17:27:47.014Z,38.27
2022-11-20T17:30:14.012Z,38.33
2022-11-20T17:32:45.719Z,40.07
2022-11-20T17:35:12.594Z,38.10
2022-11-20T17:37:40.777Z,41.23
2022-11-20T17:40:07.788Z,41.10
2022-11-20T17:42:36.892Z,40.23
2022-11-20T17:45:05.076Z,40.33
2022-11-20T17:47:31.827Z,40.83
2022-11-20T17:49:58.586Z,41.93
2022-11-20T17:52:25.300Z,41.90
2022-11-20T17:54:55.879Z,40.20
2022-11-20T17:57:42.588Z,39.13
2022-11-20T18:00:13.069Z,38.87
2022-11-20T18:02:40.120Z,39.67
2022-11-20T18:05:07.128Z,41.33
2022-11-20T18:07:38.524Z,58.73
2022-11-20T18:10:09.083Z,46.70
2022-11-20T18:12:35.869Z,45.27
2022-11-20T18:15:02.588Z,42.53
2022-11-20T18:17:29.368Z,40.63
2022-11-20T18:20:21.811Z,41.70
2022-11-20T18:22:42.849Z,39.77
2022-11-20T18:25:10.325Z,41.67
2022-11-20T18:27:37.138Z,43.60
2022-11-20T18:30:04.113Z,43.40
2022-11-20T18:32:31.179Z,41.40
2022-11-20T18:34:57.987Z,41.87
2022-11-20T18:37:24.729Z,41.10
2022-11-20T18:39:51.625Z,42.23
2022-11-20T18:42:37.049Z,42.93
2022-11-20T18:45:05.054Z,42.60
2022-11-20T18:47:36.134Z,43.87
2022-11-20T18:50:04.105Z,42.70
2022-11-20T18:52:34.346Z,43.40
2022-11-20T18:55:03.221Z,40.03
2022-11-20T18:57:30.351Z,43.40
2022-11-20T19:00:03.615Z,44.40
2022-11-20T19:02:40.908Z,43.90
2022-11-20T19:05:09.600Z,43.70
2022-11-20T19:07:36.351Z,43.13
2022-11-20T19:10:04.564Z,44.40
2022-11-20T19:12:31.449Z,45.73
2022-11-20T19:14:58.222Z,42.77
2022-11-20T19:17:24.964Z,44.67
2022-11-20T19:19:55.011Z,45.30
2022-11-20T19:22:22.185Z,46.73
2022-11-20T19:24:52.787Z,43.70
2022-11-20T19:27:19.602Z,43.67
2022-11-20T19:29:46.313Z,45.27
2022-11-20T19:32:12.987Z,43.27
2022-11-20T19:34:39.786Z,45.53
2022-11-20T19:37:06.658Z,44.70
2022-11-20T19:39:35.481Z,43.10
2022-11-20T19:42:02.670Z,44.47
2022-11-20T19:44:29.380Z,43.43
2022-11-20T19:46:58.700Z,44.63
2022-11-20T19:49:25.906Z,46.07
2022-11-20T19:51:56.368Z,44.77
2022-11-20T19:54:23.083Z,43.90
2022-11-20T19:56:50.577Z,46.50
2022-11-20T19:59:17.285Z,44.07
2022-11-20T20:01:44.319Z,45.93
2022-11-20T20:04:11.183Z,43.23
2022-11-20T20:06:39.923Z,42.40
2022-11-20T20:09:09.908Z,43.23
2022-11-20T20:11:37.657Z,45.03
2022-11-20T20:14:13.564Z,42.87
2022-11-20T20:16:40.765Z,43.83
2022-11-20T20:19:07.485Z,42.40
2022-11-20T20:21:36.261Z,43.17
2022-11-20T20:24:03.557Z,41.57
2022-11-20T20:26:31.971Z,39.67
2022-11-20T20:28:59.797Z,40.40
2022-11-20T20:31:28.637Z,39.13
2022-11-20T20:33:56.169Z,40.10
2022-11-20T20:36:24.180Z,39.60
2022-11-20T20:38:55.385Z,40.47
2022-11-20T20:41:24.691Z,40.00
2022-11-20T20:44:11.291Z,37.13
2022-11-20T20:46:38.220Z,36.63
2022-11-20T20:49:05.366Z,35.90
2022-11-20T20:51:32.029Z,38.30
2022-11-20T20:53:59.405Z,37.00
2022-11-20T20:56:26.547Z,34.40
2022-11-20T20:58:53.343Z,34.70
2022-11-20T21:01:21.288Z,36.03
2022-11-20T21:03:48.145Z,35.97
2022-11-20T21:06:14.869Z,36.23
2022-11-20T21:08:44.233Z,35.30
2022-11-20T21:11:16.279Z,37.17
2022-11-20T21:13:44.528Z,34.70
2022-11-20T21:16:12.523Z,37.37
2022-11-20T21:18:39.367Z,35.50
2022-11-20T21:21:26.650Z,34.53
2022-11-20T21:23:53.852Z,33.80
2022-11-20T21:26:21.537Z,35.67
2022-11-20T21:28:49.933Z,33.87
2022-11-20T21:31:22.298Z,35.70
2022-11-20T21:33:50.442Z,34.93
2022-11-20T21:36:22.476Z,34.70
2022-11-20T21:38:51.317Z,34.50
2022-11-20T21:41:18.076Z,34.63
2022-11-20T21:43:44.862Z,34.83
2022-11-20T21:46:14.175Z,34.03
2022-11-20T21:48:43.423Z,34.50
2022-11-20T21:51:15.373Z,34.90
2022-11-20T21:53:43.459Z,33.77
2022-11-20T21:56:12.286Z,32.73
2022-11-20T21:58:42.082Z,33.57
2022-11-20T22:01:12.850Z,35.03
2022-11-20T22:03:39.766Z,34.77
2022-11-20T22:06:08.253Z,35.93
2022-11-20T22:08:36.197Z,33.60
2022-11-20T22:11:08.638Z,35.07
2022-11-20T22:13:54.480Z,33.20
2022-11-20T22:16:21.735Z,36.07
2022-11-20T22:18:50.573Z,34.40
2022-11-20T22:21:19.592Z,36.10
2022-11-20T22:23:46.547Z,34.73
2022-11-20T22:26:18.974Z,34.70
2022-11-20T22:28:50.402Z,36.50
2022-11-20T22:31:18.383Z,34.07
2022-11-20T22:33:45.420Z,35.87
2022-11-20T22:36:15.019Z,37.10
2022-11-20T22:38:42.103Z,37.03
2022-11-20T22:41:10.321Z,35.17
2022-11-20T22:43:37.374Z,37.17
2022-11-20T22:46:05.540Z,36.37
2022-11-20T22:48:33.758Z,34.77
2022-11-20T22:51:08.947Z,36.33
2022-11-20T22:53:36.225Z,34.33
2022-11-20T22:56:04.289Z,32.80
2022-11-20T22:58:31.573Z,34.20
2022-11-20T23:01:17.589Z,36.57
2022-11-20T23:03:46.913Z,33.47
2022-11-20T23:06:14.811Z,33.67
2022-11-20T23:08:42.491Z,33.93
2022-11-20T23:11:17.587Z,33.10
2022-11-20T23:13:45.245Z,32.53
2022-11-20T23:16:15.232Z,32.30
2022-11-20T23:18:42.593Z,33.40
2022-11-20T23:21:17.674Z,30.30
2022-11-20T23:23:48.978Z,31.73
2022-11-20T23:26:16.917Z,29.93
2022-11-20T23:28:44.270Z,30.03
2022-11-20T23:31:12.318Z,32.20
2022-11-20T23:33:40.986Z,33.73
2022-11-20T23:36:08.387Z,35.83
2022-11-20T23:38:35.377Z,33.60
2022-11-20T23:41:02.403Z,33.30
2022-11-20T23:43:29.300Z,32.97
2022-11-20T23:45:58.185Z,32.03
2022-11-20T23:48:27.565Z,33.10
2022-11-20T23:50:54.770Z,32.83
2022-11-20T23:53:22.291Z,30.70
2022-11-20T23:55:54.439Z,32.53
2022-11-20T23:58:22.417Z,30.30
